sensor_id;sensor_type;location;lat;lon;timestamp;temperature;humidity
15636;DHT22;7917;50.818;6.972;2023-05-07T00:00:07;13.60;99.90
15636;DHT22;7917;50.818;6.972;2023-05-07T00:02:34;13.60;99.90
15636;DHT22;7917;50.818;6.972;2023-05-07T00:05:01;13.60;99.90
15636;DHT22;7917;50.818;6.972;2023-05-07T00:07:28;13.60;99.90
15636;DHT22;7917;50.818;6.972;2023-05-07T00:09:55;13.50;99.90
15636;DHT22;7917;50.818;6.972;2023-05-07T00:12:22;13.60;99.90
15636;DHT22;7917;50.818;6.972;2023-05-07T00:14:49;13.60;99.90
15636;DHT22;7917;50.818;6.972;2023-05-07T00:17:16;13.50;99.90
15636;DHT22;7917;50.818;6.972;2023-05-07T00:19:43;13.50;99.90
15636;DHT22;7917;50.818;6.972;2023-05-07T00:22:09;13.50;99.90
15636;DHT22;7917;50.818;6.972;2023-05-07T00:24:36;13.50;99.90
15636;DHT22;7917;50.818;6.972;2023-05-07T00:27:03;13.50;99.90
15636;DHT22;7917;50.818;6.972;2023-05-07T00:29:30;13.50;99.90
15636;DHT22;7917;50.818;6.972;2023-05-07T00:31:57;13.50;99.90
15636;DHT22;7917;50.818;6.972;2023-05-07T00:34:24;13.50;99.90
15636;DHT22;7917;50.818;6.972;2023-05-07T00:36:50;13.50;99.90
15636;DHT22;7917;50.818;6.972;2023-05-07T00:39:17;13.50;99.90
15636;DHT22;7917;50.818;6.972;2023-05-07T00:41:44;13.50;99.90
15636;DHT22;7917;50.818;6.972;2023-05-07T00:44:14;13.50;99.90
15636;DHT22;7917;50.818;6.972;2023-05-07T00:46:41;13.50;99.90
15636;DHT22;7917;50.818;6.972;2023-05-07T00:49:12;13.50;99.90
15636;DHT22;7917;50.818;6.972;2023-05-07T00:51:45;13.50;99.90
15636;DHT22;7917;50.818;6.972;2023-05-07T00:54:12;13.50;99.90
15636;DHT22;7917;50.818;6.972;2023-05-07T00:56:39;13.50;99.90
15636;DHT22;7917;50.818;6.972;2023-05-07T00:59:06;13.50;99.90
15636;DHT22;7917;50.818;6.972;2023-05-07T01:01:33;13.50;99.90
15636;DHT22;7917;50.818;6.972;2023-05-07T01:04:01;13.50;99.90
15636;DHT22;7917;50.818;6.972;2023-05-07T01:06:29;13.50;99.90
15636;DHT22;7917;50.818;6.972;2023-05-07T01:08:57;13.50;99.90
15636;DHT22;7917;50.818;6.972;2023-05-07T01:11:24;13.50;99.90
15636;DHT22;7917;50.818;6.972;2023-05-07T01:13:51;13.50;99.90
15636;DHT22;7917;50.818;6.972;2023-05-07T01:16:18;13.50;99.90
15636;DHT22;7917;50.818;6.972;2023-05-07T01:18:46;13.50;99.90
15636;DHT22;7917;50.818;6.972;2023-05-07T01:21:16;13.50;99.90
15636;DHT22;7917;50.818;6.972;2023-05-07T01:23:45;13.50;99.90
15636;DHT22;7917;50.818;6.972;2023-05-07T01:26:12;13.50;99.90
15636;DHT22;7917;50.818;6.972;2023-05-07T01:28:39;13.50;99.90
15636;DHT22;7917;50.818;6.972;2023-05-07T01:31:06;13.50;99.90
15636;DHT22;7917;50.818;6.972;2023-05-07T01:33:35;13.50;99.90
15636;DHT22;7917;50.818;6.972;2023-05-07T01:36:04;13.50;99.90
15636;DHT22;7917;50.818;6.972;2023-05-07T01:38:32;13.50;99.90
15636;DHT22;7917;50.818;6.972;2023-05-07T01:41:00;13.50;99.90
15636;DHT22;7917;50.818;6.972;2023-05-07T01:43:28;13.50;99.90
15636;DHT22;7917;50.818;6.972;2023-05-07T01:45:55;13.50;99.90
15636;DHT22;7917;50.818;6.972;2023-05-07T01:48:24;13.40;99.90
15636;DHT22;7917;50.818;6.972;2023-05-07T01:50:51;13.40;99.90
15636;DHT22;7917;50.818;6.972;2023-05-07T01:53:18;13.40;99.90
15636;DHT22;7917;50.818;6.972;2023-05-07T01:55:45;13.40;99.90
15636;DHT22;7917;50.818;6.972;2023-05-07T01:58:13;13.30;99.90
15636;DHT22;7917;50.818;6.972;2023-05-07T02:00:40;13.40;99.90
15636;DHT22;7917;50.818;6.972;2023-05-07T02:03:07;13.30;99.90
15636;DHT22;7917;50.818;6.972;2023-05-07T02:05:33;13.40;99.90
15636;DHT22;7917;50.818;6.972;2023-05-07T02:08:00;13.40;99.90
15636;DHT22;7917;50.818;6.972;2023-05-07T02:10:27;13.40;99.90
15636;DHT22;7917;50.818;6.972;2023-05-07T02:12:54;13.30;99.90
15636;DHT22;7917;50.818;6.972;2023-05-07T02:15:22;13.30;99.90
15636;DHT22;7917;50.818;6.972;2023-05-07T02:17:59;13.30;99.90
15636;DHT22;7917;50.818;6.972;2023-05-07T02:20:26;13.20;99.90
15636;DHT22;7917;50.818;6.972;2023-05-07T02:22:56;13.20;99.90
15636;DHT22;7917;50.818;6.972;2023-05-07T02:25:32;13.20;99.90
15636;DHT22;7917;50.818;6.972;2023-05-07T02:27:59;13.10;99.90
15636;DHT22;7917;50.818;6.972;2023-05-07T02:30:26;13.10;99.90
15636;DHT22;7917;50.818;6.972;2023-05-07T02:32:56;13.10;99.90
15636;DHT22;7917;50.818;6.972;2023-05-07T02:35:24;13.10;99.90
15636;DHT22;7917;50.818;6.972;2023-05-07T02:37:51;13.10;99.90
15636;DHT22;7917;50.818;6.972;2023-05-07T02:40:18;13.10;99.90
15636;DHT22;7917;50.818;6.972;2023-05-07T02:42:44;13.10;99.90
15636;DHT22;7917;50.818;6.972;2023-05-07T02:45:11;13.10;99.90
15636;DHT22;7917;50.818;6.972;2023-05-07T02:47:39;13.10;99.90
15636;DHT22;7917;50.818;6.972;2023-05-07T02:50:07;13.10;99.90
15636;DHT22;7917;50.818;6.972;2023-05-07T02:52:33;13.10;99.90
15636;DHT22;7917;50.818;6.972;2023-05-07T02:55:00;13.10;99.90
15636;DHT22;7917;50.818;6.972;2023-05-07T02:57:29;13.20;99.90
15636;DHT22;7917;50.818;6.972;2023-05-07T02:59:57;13.10;99.90
15636;DHT22;7917;50.818;6.972;2023-05-07T03:02:24;13.10;99.90
15636;DHT22;7917;50.818;6.972;2023-05-07T03:04:51;13.20;99.90
15636;DHT22;7917;50.818;6.972;2023-05-07T03:07:18;13.10;99.90
15636;DHT22;7917;50.818;6.972;2023-05-07T03:09:48;13.10;99.90
15636;DHT22;7917;50.818;6.972;2023-05-07T03:12:15;13.10;99.90
15636;DHT22;7917;50.818;6.972;2023-05-07T03:14:42;13.20;99.90
15636;DHT22;7917;50.818;6.972;2023-05-07T03:17:11;13.20;99.90
15636;DHT22;7917;50.818;6.972;2023-05-07T03:19:38;13.20;99.90
15636;DHT22;7917;50.818;6.972;2023-05-07T03:22:06;13.20;99.90
15636;DHT22;7917;50.818;6.972;2023-05-07T03:24:32;13.20;99.90
15636;DHT22;7917;50.818;6.972;2023-05-07T03:26:59;13.10;99.90
15636;DHT22;7917;50.818;6.972;2023-05-07T03:29:26;13.00;99.90
15636;DHT22;7917;50.818;6.972;2023-05-07T03:31:53;13.00;99.90
15636;DHT22;7917;50.818;6.972;2023-05-07T03:34:20;12.90;99.90
15636;DHT22;7917;50.818;6.972;2023-05-07T03:36:47;12.80;99.90
15636;DHT22;7917;50.818;6.972;2023-05-07T03:39:15;12.80;99.90
15636;DHT22;7917;50.818;6.972;2023-05-07T03:41:41;12.70;99.90
15636;DHT22;7917;50.818;6.972;2023-05-07T03:44:08;12.60;99.90
15636;DHT22;7917;50.818;6.972;2023-05-07T03:46:35;12.60;99.90
15636;DHT22;7917;50.818;6.972;2023-05-07T03:49:02;12.60;99.90
15636;DHT22;7917;50.818;6.972;2023-05-07T03:54:36;12.60;99.90
15636;DHT22;7917;50.818;6.972;2023-05-07T03:57:06;12.60;99.90
15636;DHT22;7917;50.818;6.972;2023-05-07T03:59:33;12.50;99.90
15636;DHT22;7917;50.818;6.972;2023-05-07T04:02:00;12.60;99.90
15636;DHT22;7917;50.818;6.972;2023-05-07T04:04:27;12.70;99.90
15636;DHT22;7917;50.818;6.972;2023-05-07T04:06:58;12.70;99.90
15636;DHT22;7917;50.818;6.972;2023-05-07T04:09:26;12.70;99.90
15636;DHT22;7917;50.818;6.972;2023-05-07T04:11:53;12.70;99.90
15636;DHT22;7917;50.818;6.972;2023-05-07T04:14:23;12.80;99.90
15636;DHT22;7917;50.818;6.972;2023-05-07T04:16:52;12.80;99.90
15636;DHT22;7917;50.818;6.972;2023-05-07T04:19:19;12.90;99.90
15636;DHT22;7917;50.818;6.972;2023-05-07T04:21:46;13.00;99.90
15636;DHT22;7917;50.818;6.972;2023-05-07T04:24:13;13.00;99.90
15636;DHT22;7917;50.818;6.972;2023-05-07T04:26:41;13.00;99.90
15636;DHT22;7917;50.818;6.972;2023-05-07T04:29:08;13.00;99.90
15636;DHT22;7917;50.818;6.972;2023-05-07T04:31:35;13.00;99.90
15636;DHT22;7917;50.818;6.972;2023-05-07T04:34:02;13.10;99.90
15636;DHT22;7917;50.818;6.972;2023-05-07T04:36:28;13.10;99.90
15636;DHT22;7917;50.818;6.972;2023-05-07T04:38:55;13.10;99.90
15636;DHT22;7917;50.818;6.972;2023-05-07T04:41:22;13.20;99.90
15636;DHT22;7917;50.818;6.972;2023-05-07T04:43:48;13.20;99.90
15636;DHT22;7917;50.818;6.972;2023-05-07T04:46:16;13.20;99.90
15636;DHT22;7917;50.818;6.972;2023-05-07T04:48:42;13.30;99.90
15636;DHT22;7917;50.818;6.972;2023-05-07T04:51:09;13.30;99.90
15636;DHT22;7917;50.818;6.972;2023-05-07T04:53:36;13.30;99.90
15636;DHT22;7917;50.818;6.972;2023-05-07T04:56:03;13.40;99.90
15636;DHT22;7917;50.818;6.972;2023-05-07T04:58:30;13.40;99.90
15636;DHT22;7917;50.818;6.972;2023-05-07T05:00:57;13.40;99.90
15636;DHT22;7917;50.818;6.972;2023-05-07T05:03:25;13.40;99.90
15636;DHT22;7917;50.818;6.972;2023-05-07T05:05:51;13.50;99.90
15636;DHT22;7917;50.818;6.972;2023-05-07T05:08:18;13.50;99.90
15636;DHT22;7917;50.818;6.972;2023-05-07T05:10:45;13.50;99.90
15636;DHT22;7917;50.818;6.972;2023-05-07T05:13:14;13.60;99.90
15636;DHT22;7917;50.818;6.972;2023-05-07T05:15:40;13.70;99.90
15636;DHT22;7917;50.818;6.972;2023-05-07T05:18:07;13.80;99.90
15636;DHT22;7917;50.818;6.972;2023-05-07T05:20:35;13.90;99.90
15636;DHT22;7917;50.818;6.972;2023-05-07T05:23:01;14.10;99.90
15636;DHT22;7917;50.818;6.972;2023-05-07T05:25:28;14.20;99.90
15636;DHT22;7917;50.818;6.972;2023-05-07T05:27:55;14.30;99.90
15636;DHT22;7917;50.818;6.972;2023-05-07T05:30:22;14.40;99.90
15636;DHT22;7917;50.818;6.972;2023-05-07T05:32:49;14.50;99.90
15636;DHT22;7917;50.818;6.972;2023-05-07T05:35:16;14.60;99.90
15636;DHT22;7917;50.818;6.972;2023-05-07T05:37:46;14.60;99.90
15636;DHT22;7917;50.818;6.972;2023-05-07T05:40:14;14.60;99.90
15636;DHT22;7917;50.818;6.972;2023-05-07T05:42:40;14.70;99.90
15636;DHT22;7917;50.818;6.972;2023-05-07T05:45:08;14.70;99.90
15636;DHT22;7917;50.818;6.972;2023-05-07T05:47:38;14.70;99.90
15636;DHT22;7917;50.818;6.972;2023-05-07T05:50:06;14.80;99.90
15636;DHT22;7917;50.818;6.972;2023-05-07T05:52:33;14.80;99.90
15636;DHT22;7917;50.818;6.972;2023-05-07T05:55:00;14.70;99.90
15636;DHT22;7917;50.818;6.972;2023-05-07T05:57:27;14.70;99.90
15636;DHT22;7917;50.818;6.972;2023-05-07T05:59:54;14.80;99.90
15636;DHT22;7917;50.818;6.972;2023-05-07T06:02:20;14.80;99.90
15636;DHT22;7917;50.818;6.972;2023-05-07T06:04:47;14.90;99.90
15636;DHT22;7917;50.818;6.972;2023-05-07T06:07:14;14.90;99.90
15636;DHT22;7917;50.818;6.972;2023-05-07T06:09:40;15.10;99.90
15636;DHT22;7917;50.818;6.972;2023-05-07T06:12:08;15.20;99.90
15636;DHT22;7917;50.818;6.972;2023-05-07T06:14:38;15.20;99.90
15636;DHT22;7917;50.818;6.972;2023-05-07T06:17:06;15.40;99.90
15636;DHT22;7917;50.818;6.972;2023-05-07T06:19:33;15.60;99.90
15636;DHT22;7917;50.818;6.972;2023-05-07T06:21:59;15.70;99.90
15636;DHT22;7917;50.818;6.972;2023-05-07T06:24:29;15.80;99.90
15636;DHT22;7917;50.818;6.972;2023-05-07T06:26:58;15.90;99.90
15636;DHT22;7917;50.818;6.972;2023-05-07T06:29:25;16.00;99.90
15636;DHT22;7917;50.818;6.972;2023-05-07T06:31:52;16.20;99.90
15636;DHT22;7917;50.818;6.972;2023-05-07T06:34:19;16.30;99.90
15636;DHT22;7917;50.818;6.972;2023-05-07T06:36:46;16.50;99.90
15636;DHT22;7917;50.818;6.972;2023-05-07T06:39:12;16.70;99.90
15636;DHT22;7917;50.818;6.972;2023-05-07T06:41:39;16.90;99.90
15636;DHT22;7917;50.818;6.972;2023-05-07T06:44:06;17.00;99.90
15636;DHT22;7917;50.818;6.972;2023-05-07T06:46:33;17.00;99.90
15636;DHT22;7917;50.818;6.972;2023-05-07T06:49:00;17.10;99.90
15636;DHT22;7917;50.818;6.972;2023-05-07T06:51:26;17.00;99.90
15636;DHT22;7917;50.818;6.972;2023-05-07T06:53:53;17.10;99.90
15636;DHT22;7917;50.818;6.972;2023-05-07T06:56:20;17.10;61.40
15636;DHT22;7917;50.818;6.972;2023-05-07T06:58:47;17.10;1.00
15636;DHT22;7917;50.818;6.972;2023-05-07T07:01:13;17.00;55.50
15636;DHT22;7917;50.818;6.972;2023-05-07T07:03:41;17.10;33.30
15636;DHT22;7917;50.818;6.972;2023-05-07T07:06:08;17.10;67.80
15636;DHT22;7917;50.818;6.972;2023-05-07T07:08:37;17.10;93.00
15636;DHT22;7917;50.818;6.972;2023-05-07T07:11:05;17.20;1.00
15636;DHT22;7917;50.818;6.972;2023-05-07T07:13:31;17.20;99.90
15636;DHT22;7917;50.818;6.972;2023-05-07T07:16:00;17.40;1.00
15636;DHT22;7917;50.818;6.972;2023-05-07T07:18:26;17.50;1.00
15636;DHT22;7917;50.818;6.972;2023-05-07T07:20:54;17.50;99.90
15636;DHT22;7917;50.818;6.972;2023-05-07T07:23:21;17.60;1.00
15636;DHT22;7917;50.818;6.972;2023-05-07T07:25:47;17.50;1.00
15636;DHT22;7917;50.818;6.972;2023-05-07T07:28:20;17.70;99.90
15636;DHT22;7917;50.818;6.972;2023-05-07T07:30:47;17.70;99.90
15636;DHT22;7917;50.818;6.972;2023-05-07T07:33:14;18.00;99.90
15636;DHT22;7917;50.818;6.972;2023-05-07T07:35:41;18.10;99.90
15636;DHT22;7917;50.818;6.972;2023-05-07T07:38:08;18.30;99.90
15636;DHT22;7917;50.818;6.972;2023-05-07T07:40:35;18.20;1.00
15636;DHT22;7917;50.818;6.972;2023-05-07T07:43:03;18.20;1.00
15636;DHT22;7917;50.818;6.972;2023-05-07T07:45:30;18.20;99.90
15636;DHT22;7917;50.818;6.972;2023-05-07T07:48:00;18.30;1.00
15636;DHT22;7917;50.818;6.972;2023-05-07T07:50:27;18.40;1.00
15636;DHT22;7917;50.818;6.972;2023-05-07T07:52:54;18.50;1.00
15636;DHT22;7917;50.818;6.972;2023-05-07T07:55:23;18.50;1.00
15636;DHT22;7917;50.818;6.972;2023-05-07T07:57:50;18.60;1.00
15636;DHT22;7917;50.818;6.972;2023-05-07T08:00:24;18.70;99.90
15636;DHT22;7917;50.818;6.972;2023-05-07T08:02:51;18.80;99.90
15636;DHT22;7917;50.818;6.972;2023-05-07T08:05:17;18.70;1.00
15636;DHT22;7917;50.818;6.972;2023-05-07T08:07:45;18.90;1.00
15636;DHT22;7917;50.818;6.972;2023-05-07T08:10:13;18.90;37.00
15636;DHT22;7917;50.818;6.972;2023-05-07T08:12:48;18.90;99.90
15636;DHT22;7917;50.818;6.972;2023-05-07T08:15:15;19.10;99.90
15636;DHT22;7917;50.818;6.972;2023-05-07T08:17:42;19.10;1.00
15636;DHT22;7917;50.818;6.972;2023-05-07T08:20:09;19.10;99.90
15636;DHT22;7917;50.818;6.972;2023-05-07T08:22:36;19.00;99.90
15636;DHT22;7917;50.818;6.972;2023-05-07T08:25:03;19.10;1.00
15636;DHT22;7917;50.818;6.972;2023-05-07T08:27:31;19.30;99.90
15636;DHT22;7917;50.818;6.972;2023-05-07T08:29:58;19.20;99.90
15636;DHT22;7917;50.818;6.972;2023-05-07T08:32:45;19.30;1.00
15636;DHT22;7917;50.818;6.972;2023-05-07T08:35:11;19.50;99.90
15636;DHT22;7917;50.818;6.972;2023-05-07T08:37:38;19.80;99.90
15636;DHT22;7917;50.818;6.972;2023-05-07T08:40:11;19.90;1.00
15636;DHT22;7917;50.818;6.972;2023-05-07T08:42:39;20.00;1.00
15636;DHT22;7917;50.818;6.972;2023-05-07T08:45:09;20.20;1.00
15636;DHT22;7917;50.818;6.972;2023-05-07T08:47:42;20.50;1.00
15636;DHT22;7917;50.818;6.972;2023-05-07T08:50:10;20.70;1.00
15636;DHT22;7917;50.818;6.972;2023-05-07T08:52:37;21.00;99.90
15636;DHT22;7917;50.818;6.972;2023-05-07T08:55:06;21.10;99.90
15636;DHT22;7917;50.818;6.972;2023-05-07T08:57:33;21.20;99.90
15636;DHT22;7917;50.818;6.972;2023-05-07T09:00:14;21.20;99.90
15636;DHT22;7917;50.818;6.972;2023-05-07T09:02:40;21.70;99.90
15636;DHT22;7917;50.818;6.972;2023-05-07T09:05:08;22.00;99.90
15636;DHT22;7917;50.818;6.972;2023-05-07T09:07:35;21.60;99.90
15636;DHT22;7917;50.818;6.972;2023-05-07T09:10:02;21.70;99.90
15636;DHT22;7917;50.818;6.972;2023-05-07T09:12:30;21.60;99.90
15636;DHT22;7917;50.818;6.972;2023-05-07T09:14:56;21.80;99.90
15636;DHT22;7917;50.818;6.972;2023-05-07T09:17:24;21.90;99.90
15636;DHT22;7917;50.818;6.972;2023-05-07T09:19:50;21.80;99.90
15636;DHT22;7917;50.818;6.972;2023-05-07T09:22:19;21.80;99.90
15636;DHT22;7917;50.818;6.972;2023-05-07T09:24:47;22.00;99.90
15636;DHT22;7917;50.818;6.972;2023-05-07T09:27:14;22.00;99.90
15636;DHT22;7917;50.818;6.972;2023-05-07T09:29:42;22.00;99.90
15636;DHT22;7917;50.818;6.972;2023-05-07T09:32:09;22.00;99.90
15636;DHT22;7917;50.818;6.972;2023-05-07T09:34:37;21.80;99.90
15636;DHT22;7917;50.818;6.972;2023-05-07T09:37:04;21.70;99.90
15636;DHT22;7917;50.818;6.972;2023-05-07T09:39:41;21.30;99.90
15636;DHT22;7917;50.818;6.972;2023-05-07T09:42:08;21.20;99.90
15636;DHT22;7917;50.818;6.972;2023-05-07T09:44:36;21.20;99.90
15636;DHT22;7917;50.818;6.972;2023-05-07T09:47:05;21.40;99.90
15636;DHT22;7917;50.818;6.972;2023-05-07T09:49:35;21.40;99.90
15636;DHT22;7917;50.818;6.972;2023-05-07T09:52:04;21.70;99.90
15636;DHT22;7917;50.818;6.972;2023-05-07T09:54:33;21.80;99.90
15636;DHT22;7917;50.818;6.972;2023-05-07T09:57:03;21.80;99.90
15636;DHT22;7917;50.818;6.972;2023-05-07T09:59:31;21.90;99.90
15636;DHT22;7917;50.818;6.972;2023-05-07T10:02:00;22.10;99.90
15636;DHT22;7917;50.818;6.972;2023-05-07T10:04:28;22.50;99.90
15636;DHT22;7917;50.818;6.972;2023-05-07T10:06:54;22.60;99.90
15636;DHT22;7917;50.818;6.972;2023-05-07T10:09:29;22.60;99.90
15636;DHT22;7917;50.818;6.972;2023-05-07T10:11:56;22.70;99.90
15636;DHT22;7917;50.818;6.972;2023-05-07T10:14:28;22.60;99.90
15636;DHT22;7917;50.818;6.972;2023-05-07T10:16:58;22.50;99.90
15636;DHT22;7917;50.818;6.972;2023-05-07T10:19:26;22.70;99.90
15636;DHT22;7917;50.818;6.972;2023-05-07T10:21:56;23.10;99.90
15636;DHT22;7917;50.818;6.972;2023-05-07T10:24:26;23.10;99.90
15636;DHT22;7917;50.818;6.972;2023-05-07T10:26:55;23.60;99.90
15636;DHT22;7917;50.818;6.972;2023-05-07T10:29:33;23.70;99.90
15636;DHT22;7917;50.818;6.972;2023-05-07T10:32:14;23.80;99.90
15636;DHT22;7917;50.818;6.972;2023-05-07T10:35:00;23.70;99.90
15636;DHT22;7917;50.818;6.972;2023-05-07T10:37:31;24.00;99.90
15636;DHT22;7917;50.818;6.972;2023-05-07T10:39:58;24.10;99.90
15636;DHT22;7917;50.818;6.972;2023-05-07T10:42:26;24.10;99.90
15636;DHT22;7917;50.818;6.972;2023-05-07T10:44:52;24.00;99.90
15636;DHT22;7917;50.818;6.972;2023-05-07T10:47:19;23.70;99.90
15636;DHT22;7917;50.818;6.972;2023-05-07T10:53:23;23.70;99.90
15636;DHT22;7917;50.818;6.972;2023-05-07T10:56:25;23.80;99.90
15636;DHT22;7917;50.818;6.972;2023-05-07T10:58:54;24.00;99.90
15636;DHT22;7917;50.818;6.972;2023-05-07T11:01:51;24.30;99.90
15636;DHT22;7917;50.818;6.972;2023-05-07T11:04:21;24.30;99.90
15636;DHT22;7917;50.818;6.972;2023-05-07T11:07:31;24.40;99.90
15636;DHT22;7917;50.818;6.972;2023-05-07T11:10:07;24.20;99.90
15636;DHT22;7917;50.818;6.972;2023-05-07T11:12:52;24.00;99.90
15636;DHT22;7917;50.818;6.972;2023-05-07T11:15:37;24.10;99.90
15636;DHT22;7917;50.818;6.972;2023-05-07T11:18:05;24.30;99.90
15636;DHT22;7917;50.818;6.972;2023-05-07T11:20:57;24.60;99.90
15636;DHT22;7917;50.818;6.972;2023-05-07T11:23:56;24.90;99.90
15636;DHT22;7917;50.818;6.972;2023-05-07T11:26:26;25.00;99.90
15636;DHT22;7917;50.818;6.972;2023-05-07T11:28:53;24.90;99.90
15636;DHT22;7917;50.818;6.972;2023-05-07T11:31:24;25.00;99.90
15636;DHT22;7917;50.818;6.972;2023-05-07T11:33:52;25.20;99.90
15636;DHT22;7917;50.818;6.972;2023-05-07T11:36:20;25.30;99.90
15636;DHT22;7917;50.818;6.972;2023-05-07T11:38:47;25.80;99.90
15636;DHT22;7917;50.818;6.972;2023-05-07T11:41:13;25.90;99.90
15636;DHT22;7917;50.818;6.972;2023-05-07T11:43:57;25.90;99.90
15636;DHT22;7917;50.818;6.972;2023-05-07T11:46:27;26.00;99.20
15636;DHT22;7917;50.818;6.972;2023-05-07T11:48:54;25.70;97.10
15636;DHT22;7917;50.818;6.972;2023-05-07T11:51:22;25.90;99.40
15636;DHT22;7917;50.818;6.972;2023-05-07T11:53:49;26.10;95.70
15636;DHT22;7917;50.818;6.972;2023-05-07T11:56:17;25.90;90.80
15636;DHT22;7917;50.818;6.972;2023-05-07T11:58:45;25.80;91.40
15636;DHT22;7917;50.818;6.972;2023-05-07T12:01:16;25.60;91.40
15636;DHT22;7917;50.818;6.972;2023-05-07T12:03:46;25.30;88.20
15636;DHT22;7917;50.818;6.972;2023-05-07T12:06:14;25.20;87.40
15636;DHT22;7917;50.818;6.972;2023-05-07T12:08:42;25.10;89.70
15636;DHT22;7917;50.818;6.972;2023-05-07T12:11:13;24.90;90.10
15636;DHT22;7917;50.818;6.972;2023-05-07T12:13:41;25.00;96.50
15636;DHT22;7917;50.818;6.972;2023-05-07T12:16:08;24.90;99.90
15636;DHT22;7917;50.818;6.972;2023-05-07T12:18:36;24.80;88.90
15636;DHT22;7917;50.818;6.972;2023-05-07T12:21:05;24.70;97.10
15636;DHT22;7917;50.818;6.972;2023-05-07T12:23:34;24.50;98.50
15636;DHT22;7917;50.818;6.972;2023-05-07T12:26:04;24.30;99.70
15636;DHT22;7917;50.818;6.972;2023-05-07T12:28:35;24.10;99.90
15636;DHT22;7917;50.818;6.972;2023-05-07T12:31:03;23.90;99.90
15636;DHT22;7917;50.818;6.972;2023-05-07T12:33:31;23.60;99.90
15636;DHT22;7917;50.818;6.972;2023-05-07T12:36:02;23.30;99.90
15636;DHT22;7917;50.818;6.972;2023-05-07T12:38:35;23.30;99.90
15636;DHT22;7917;50.818;6.972;2023-05-07T12:41:06;23.10;99.90
15636;DHT22;7917;50.818;6.972;2023-05-07T12:43:33;22.80;99.90
15636;DHT22;7917;50.818;6.972;2023-05-07T12:46:02;22.70;99.90
15636;DHT22;7917;50.818;6.972;2023-05-07T12:48:30;22.60;99.90
15636;DHT22;7917;50.818;6.972;2023-05-07T12:50:59;22.40;99.90
15636;DHT22;7917;50.818;6.972;2023-05-07T12:53:27;22.20;99.90
15636;DHT22;7917;50.818;6.972;2023-05-07T12:55:56;22.10;99.90
15636;DHT22;7917;50.818;6.972;2023-05-07T12:58:25;21.90;99.90
15636;DHT22;7917;50.818;6.972;2023-05-07T13:00:53;21.60;99.90
15636;DHT22;7917;50.818;6.972;2023-05-07T13:03:25;21.50;99.90
15636;DHT22;7917;50.818;6.972;2023-05-07T13:05:53;21.40;99.90
15636;DHT22;7917;50.818;6.972;2023-05-07T13:08:25;21.20;99.90
15636;DHT22;7917;50.818;6.972;2023-05-07T13:10:52;21.00;99.90
15636;DHT22;7917;50.818;6.972;2023-05-07T13:13:20;20.80;1.00
15636;DHT22;7917;50.818;6.972;2023-05-07T13:15:47;20.70;1.00
15636;DHT22;7917;50.818;6.972;2023-05-07T13:18:14;20.70;1.00
15636;DHT22;7917;50.818;6.972;2023-05-07T13:20:40;20.80;42.90
15636;DHT22;7917;50.818;6.972;2023-05-07T13:23:07;20.80;1.00
15636;DHT22;7917;50.818;6.972;2023-05-07T13:25:34;20.90;1.00
15636;DHT22;7917;50.818;6.972;2023-05-07T13:28:01;20.80;1.00
15636;DHT22;7917;50.818;6.972;2023-05-07T13:30:29;20.90;1.00
15636;DHT22;7917;50.818;6.972;2023-05-07T13:32:56;21.00;91.50
15636;DHT22;7917;50.818;6.972;2023-05-07T13:35:26;21.30;99.90
15636;DHT22;7917;50.818;6.972;2023-05-07T13:37:53;21.50;1.00
15636;DHT22;7917;50.818;6.972;2023-05-07T13:40:21;21.50;99.90
15636;DHT22;7917;50.818;6.972;2023-05-07T13:42:48;21.50;1.00
15636;DHT22;7917;50.818;6.972;2023-05-07T13:45:15;21.50;99.90
15636;DHT22;7917;50.818;6.972;2023-05-07T13:47:43;21.50;1.00
15636;DHT22;7917;50.818;6.972;2023-05-07T13:50:11;21.50;99.90
15636;DHT22;7917;50.818;6.972;2023-05-07T13:52:41;21.40;99.90
15636;DHT22;7917;50.818;6.972;2023-05-07T13:55:09;21.30;1.00
15636;DHT22;7917;50.818;6.972;2023-05-07T13:57:36;21.10;99.90
15636;DHT22;7917;50.818;6.972;2023-05-07T14:00:04;20.90;13.10
15636;DHT22;7917;50.818;6.972;2023-05-07T14:02:32;20.60;99.90
15636;DHT22;7917;50.818;6.972;2023-05-07T14:04:59;20.40;99.90
15636;DHT22;7917;50.818;6.972;2023-05-07T14:07:26;20.40;1.00
15636;DHT22;7917;50.818;6.972;2023-05-07T14:09:53;20.30;1.00
15636;DHT22;7917;50.818;6.972;2023-05-07T14:12:20;20.10;1.00
15636;DHT22;7917;50.818;6.972;2023-05-07T14:14:46;20.10;1.00
15636;DHT22;7917;50.818;6.972;2023-05-07T14:17:16;20.00;1.00
15636;DHT22;7917;50.818;6.972;2023-05-07T14:19:42;19.90;99.90
15636;DHT22;7917;50.818;6.972;2023-05-07T14:22:14;19.80;99.90
15636;DHT22;7917;50.818;6.972;2023-05-07T14:24:41;19.80;76.30
15636;DHT22;7917;50.818;6.972;2023-05-07T14:27:08;19.70;99.90
15636;DHT22;7917;50.818;6.972;2023-05-07T14:29:37;19.50;1.00
15636;DHT22;7917;50.818;6.972;2023-05-07T14:32:04;19.40;99.90
15636;DHT22;7917;50.818;6.972;2023-05-07T14:34:32;19.30;1.00
15636;DHT22;7917;50.818;6.972;2023-05-07T14:37:02;19.30;1.00
15636;DHT22;7917;50.818;6.972;2023-05-07T14:39:32;19.30;1.00
15636;DHT22;7917;50.818;6.972;2023-05-07T14:41:59;19.30;1.00
15636;DHT22;7917;50.818;6.972;2023-05-07T14:44:26;19.40;1.00
15636;DHT22;7917;50.818;6.972;2023-05-07T14:46:53;19.40;1.00
15636;DHT22;7917;50.818;6.972;2023-05-07T14:49:20;19.50;1.00
15636;DHT22;7917;50.818;6.972;2023-05-07T14:51:47;19.50;1.00
15636;DHT22;7917;50.818;6.972;2023-05-07T14:54:14;19.40;1.00
15636;DHT22;7917;50.818;6.972;2023-05-07T14:56:42;19.50;99.90
15636;DHT22;7917;50.818;6.972;2023-05-07T14:59:09;19.60;1.00
15636;DHT22;7917;50.818;6.972;2023-05-07T15:01:36;19.80;1.00
15636;DHT22;7917;50.818;6.972;2023-05-07T15:04:04;19.90;1.00
15636;DHT22;7917;50.818;6.972;2023-05-07T15:06:31;19.90;1.00
15636;DHT22;7917;50.818;6.972;2023-05-07T15:08:58;20.00;1.00
15636;DHT22;7917;50.818;6.972;2023-05-07T15:11:25;20.00;99.90
15636;DHT22;7917;50.818;6.972;2023-05-07T15:13:53;20.10;99.90
15636;DHT22;7917;50.818;6.972;2023-05-07T15:16:20;20.10;99.90
15636;DHT22;7917;50.818;6.972;2023-05-07T15:18:48;20.20;7.50
15636;DHT22;7917;50.818;6.972;2023-05-07T15:21:15;20.40;59.80
15636;DHT22;7917;50.818;6.972;2023-05-07T15:23:42;20.60;22.70
15636;DHT22;7917;50.818;6.972;2023-05-07T15:26:10;20.60;74.10
15636;DHT22;7917;50.818;6.972;2023-05-07T15:28:37;20.70;1.00
15636;DHT22;7917;50.818;6.972;2023-05-07T15:31:05;20.50;96.80
15636;DHT22;7917;50.818;6.972;2023-05-07T15:33:33;20.30;99.90
15636;DHT22;7917;50.818;6.972;2023-05-07T15:35:59;20.30;99.90
15636;DHT22;7917;50.818;6.972;2023-05-07T15:38:26;20.40;99.90
15636;DHT22;7917;50.818;6.972;2023-05-07T15:40:53;20.50;99.90
15636;DHT22;7917;50.818;6.972;2023-05-07T15:43:20;20.50;99.90
15636;DHT22;7917;50.818;6.972;2023-05-07T15:45:47;20.70;1.00
15636;DHT22;7917;50.818;6.972;2023-05-07T15:48:15;20.80;7.50
15636;DHT22;7917;50.818;6.972;2023-05-07T15:50:42;20.80;1.00
15636;DHT22;7917;50.818;6.972;2023-05-07T15:53:09;20.70;53.20
15636;DHT22;7917;50.818;6.972;2023-05-07T15:55:36;20.60;1.00
15636;DHT22;7917;50.818;6.972;2023-05-07T15:58:03;20.50;99.90
15636;DHT22;7917;50.818;6.972;2023-05-07T16:00:31;20.40;1.00